Kezdőlap
METAR-TAF:

METAR-TAF

Repülőterek :

Radom-Sadków

Radom, Lengyelország

földrajzi szélesség: 51-23-21N, földrajzi hosszúság: 21-12-49E, magasság: 186 m

Jelenlegi meteorológiai megfigyelések

A jelentés 33 perccel ezelõtt készült, 04:30 UTC
Déli szél 6 kt
Hőmérséklet 14°C
Páratartalom 82%
Légköri nyomás 1014 hPa
Látótávolság 10 km, vagy több
felhőtlen 1500 m magasságban, és nincs gomolyfelhõ

METAR: EPRA 150430Z 17006KT CAVOK 14/11 Q1014

Idő: 07:03 (05:03 UTC)

Előrejelzés

A jelentés 2 órával és 33 perccel ezelõtt készült, 02:30 UTC
Az előrejelzés 15-én 03 óra UTC és 15-én 12 óra UTC között érvényes
Dél-délkeleti szél 10 kt
Látótávolság 10 km, vagy több
felhőtlen 1500 m magasságban, és nincs gomolyfelhõ

TAF: EPRA 150230Z 1503/1512 16010KT CAVOK

Meteorológiai megfigyelések és előrejelzések több, mint 4000 repülőtéren (METAR és TAF jelentéseket).

A térképen piros és sárga pontok jelzik az elérhető meteorológiai állomásokat.

Mozgassa az egeret a pont fölött, hogy megjelenjen az állomás neve.

Azután kattintson az időjárási megfigyelések és előrejelzések megtekintéséhez.

A térkép megváltoztatása: kattintson a fekete keresztel jelölt zöld gombra ráközelítéshez, a vonallal jelölt zöld gombra távolításhoz, vagy a zöld nyilakra a szomszédos térképek eléréséhez.


METAR-TAF: